FFT2030 KIAH-KMCO
Flight info
| Callsign | FFT2030 |
|---|---|
| Flight time | 1h 43m |
| Altitude | 37000 |
| Route | GUMBY3 LLA DCT LEV Y280 CHRGE PRICY5 |
| Aircraft | A321/M-VGDW/C |
Departure
| Time | 2026-05-08 00:40 |
|---|---|
| Airport | George Bush Intercontinental Airport (KIAH) |
Arrival
| Time | 2026-05-08 02:23 |
|---|---|
| Airport | Orlando International Airport (KMCO) |
| Time | Latitude | Longitude | Altitude | Speed | Heading |
|---|---|---|---|---|---|
| 2026-05-08 00:09 | 29.98890 | -95.34894 | 107 ft | 0 kts | 270° |
| 2026-05-08 00:27 | 29.98890 | -95.34889 | 108 ft | 3 kts | 268° |
| 2026-05-08 00:28 | 29.98890 | -95.34859 | 108 ft | 4 kts | 270° |
| 2026-05-08 00:28 | 29.98891 | -95.34833 | 108 ft | 2 kts | 276° |
| 2026-05-08 00:28 | 29.98889 | -95.34819 | 108 ft | 2 kts | 313° |
| 2026-05-08 00:28 | 29.98878 | -95.34811 | 105 ft | 3 kts | 351° |
| 2026-05-08 00:29 | 29.98869 | -95.34810 | 108 ft | 3 kts | 0° |
| 2026-05-08 00:29 | 29.98886 | -95.34810 | 104 ft | 1 kts | 359° |
| 2026-05-08 00:29 | 29.98887 | -95.34810 | 103 ft | 0 kts | 360° |
| 2026-05-08 00:32 | 29.98908 | -95.34810 | 106 ft | 6 kts | 359° |
| 2026-05-08 00:32 | 29.98951 | -95.34811 | 107 ft | 6 kts | 360° |
| 2026-05-08 00:33 | 29.98954 | -95.34811 | 107 ft | 0 kts | 359° |
| 2026-05-08 00:33 | 29.98956 | -95.34811 | 107 ft | 2 kts | 359° |
| 2026-05-08 00:34 | 29.98991 | -95.34811 | 107 ft | 7 kts | 360° |
| 2026-05-08 00:34 | 29.99048 | -95.34812 | 107 ft | 10 kts | 354° |
| 2026-05-08 00:34 | 29.99085 | -95.34889 | 107 ft | 14 kts | 273° |
| 2026-05-08 00:34 | 29.99089 | -95.34995 | 107 ft | 12 kts | 272° |
| 2026-05-08 00:35 | 29.99090 | -95.35087 | 107 ft | 11 kts | 270° |
| 2026-05-08 00:35 | 29.99091 | -95.35180 | 107 ft | 12 kts | 270° |
| 2026-05-08 00:35 | 29.99090 | -95.35274 | 107 ft | 12 kts | 270° |
| 2026-05-08 00:35 | 29.99090 | -95.35372 | 107 ft | 12 kts | 270° |
| 2026-05-08 00:36 | 29.99083 | -95.35461 | 107 ft | 10 kts | 241° |
| 2026-05-08 00:36 | 29.99025 | -95.35483 | 107 ft | 8 kts | 180° |
| 2026-05-08 00:36 | 29.98967 | -95.35484 | 107 ft | 8 kts | 180° |
| 2026-05-08 00:36 | 29.98904 | -95.35516 | 107 ft | 12 kts | 231° |
| 2026-05-08 00:37 | 29.98862 | -95.35602 | 107 ft | 12 kts | 242° |
| 2026-05-08 00:37 | 29.98830 | -95.35672 | 107 ft | 6 kts | 242° |
| 2026-05-08 00:37 | 29.98828 | -95.35675 | 107 ft | 0 kts | 242° |
| 2026-05-08 00:38 | 29.98820 | -95.35694 | 107 ft | 6 kts | 242° |
| 2026-05-08 00:38 | 29.98788 | -95.35754 | 108 ft | 10 kts | 224° |
| 2026-05-08 00:39 | 29.98728 | -95.35748 | 108 ft | 7 kts | 153° |
| 2026-05-08 00:39 | 29.98675 | -95.35716 | 108 ft | 15 kts | 152° |
| 2026-05-08 00:39 | 29.98342 | -95.35513 | 106 ft | 96 kts | 152° |
| 2026-05-08 00:39 | 29.97536 | -95.35019 | 107 ft | 164 kts | 152° |
| 2026-05-08 00:40 | 29.96414 | -95.34335 | 475 ft | 188 kts | 151° |
| 2026-05-08 00:40 | 29.95366 | -95.33455 | 1305 ft | 186 kts | 125° |
| 2026-05-08 00:40 | 29.94865 | -95.32089 | 2032 ft | 192 kts | 103° |
| 2026-05-08 00:40 | 29.94588 | -95.30516 | 2323 ft | 208 kts | 99° |
| 2026-05-08 00:41 | 29.94321 | -95.28795 | 2486 ft | 226 kts | 100° |
| 2026-05-08 00:41 | 29.94010 | -95.26995 | 2926 ft | 232 kts | 102° |
| 2026-05-08 00:41 | 29.93661 | -95.25159 | 3377 ft | 237 kts | 101° |
| 2026-05-08 00:41 | 29.93639 | -95.23224 | 3658 ft | 252 kts | 88° |
| 2026-05-08 00:42 | 29.93716 | -95.21149 | 4099 ft | 263 kts | 89° |
| 2026-05-08 00:42 | 29.93771 | -95.19010 | 4684 ft | 270 kts | 89° |
| 2026-05-08 00:42 | 29.93816 | -95.16826 | 5266 ft | 276 kts | 89° |
| 2026-05-08 00:42 | 29.93855 | -95.14601 | 5895 ft | 278 kts | 89° |
| 2026-05-08 00:43 | 29.93890 | -95.12363 | 6547 ft | 280 kts | 89° |
| 2026-05-08 00:43 | 29.93925 | -95.10107 | 7133 ft | 283 kts | 89° |
| 2026-05-08 00:43 | 29.93889 | -95.07825 | 7700 ft | 286 kts | 99° |
| 2026-05-08 00:43 | 29.93350 | -95.05609 | 8253 ft | 289 kts | 109° |
| 2026-05-08 00:44 | 29.92694 | -95.03403 | 8827 ft | 293 kts | 109° |
| 2026-05-08 00:44 | 29.92030 | -95.01169 | 9388 ft | 296 kts | 109° |
| 2026-05-08 00:44 | 29.91359 | -94.98910 | 9940 ft | 300 kts | 110° |
| 2026-05-08 00:44 | 29.90674 | -94.96599 | 10225 ft | 313 kts | 110° |
| 2026-05-08 00:45 | 29.89948 | -94.94154 | 10338 ft | 332 kts | 110° |
| 2026-05-08 00:45 | 29.89181 | -94.91568 | 10464 ft | 349 kts | 109° |
| 2026-05-08 00:45 | 29.88386 | -94.88874 | 10756 ft | 359 kts | 110° |
| 2026-05-08 00:45 | 29.87573 | -94.86130 | 11224 ft | 364 kts | 110° |
| 2026-05-08 00:46 | 29.86751 | -94.83355 | 11713 ft | 368 kts | 110° |
| 2026-05-08 00:46 | 29.85931 | -94.80582 | 12193 ft | 372 kts | 111° |
| 2026-05-08 00:46 | 29.85087 | -94.77742 | 12675 ft | 377 kts | 111° |
| 2026-05-08 00:46 | 29.84233 | -94.74876 | 13148 ft | 381 kts | 111° |
| 2026-05-08 00:47 | 29.83366 | -94.71967 | 13631 ft | 385 kts | 112° |
| 2026-05-08 00:47 | 29.82491 | -94.69037 | 14070 ft | 390 kts | 112° |
| 2026-05-08 00:47 | 29.81604 | -94.66070 | 14494 ft | 394 kts | 112° |
| 2026-05-08 00:47 | 29.80709 | -94.63074 | 14904 ft | 398 kts | 112° |
| 2026-05-08 00:48 | 29.79803 | -94.60041 | 15325 ft | 403 kts | 112° |
| 2026-05-08 00:48 | 29.78886 | -94.56971 | 15722 ft | 407 kts | 113° |
| 2026-05-08 00:48 | 29.77959 | -94.53873 | 16133 ft | 411 kts | 113° |
| 2026-05-08 00:48 | 29.77023 | -94.50740 | 16532 ft | 416 kts | 113° |
| 2026-05-08 00:49 | 29.76076 | -94.47570 | 16921 ft | 420 kts | 113° |
| 2026-05-08 00:49 | 29.75121 | -94.44376 | 17307 ft | 424 kts | 114° |
| 2026-05-08 00:49 | 29.74153 | -94.41150 | 17699 ft | 429 kts | 114° |
| 2026-05-08 00:49 | 29.73172 | -94.37894 | 18082 ft | 433 kts | 114° |
| 2026-05-08 00:50 | 29.72234 | -94.34585 | 18425 ft | 439 kts | 108° |
| 2026-05-08 00:50 | 29.71715 | -94.31087 | 18765 ft | 446 kts | 101° |
| 2026-05-08 00:50 | 29.71334 | -94.27583 | 19113 ft | 449 kts | 100° |
| 2026-05-08 00:50 | 29.70944 | -94.24014 | 19471 ft | 451 kts | 100° |
| 2026-05-08 00:51 | 29.70548 | -94.20429 | 19824 ft | 453 kts | 100° |
| 2026-05-08 00:51 | 29.70145 | -94.16822 | 20176 ft | 455 kts | 100° |
| 2026-05-08 00:51 | 29.69737 | -94.13197 | 20525 ft | 458 kts | 101° |
| 2026-05-08 00:51 | 29.69323 | -94.09562 | 20873 ft | 460 kts | 100° |
| 2026-05-08 00:52 | 29.68907 | -94.05909 | 21227 ft | 462 kts | 100° |
| 2026-05-08 00:52 | 29.68646 | -94.02207 | 21560 ft | 466 kts | 92° |
| 2026-05-08 00:52 | 29.68622 | -93.98467 | 21904 ft | 469 kts | 92° |
| 2026-05-08 00:52 | 29.68600 | -93.94711 | 22239 ft | 471 kts | 92° |
| 2026-05-08 00:53 | 29.68575 | -93.90941 | 22569 ft | 473 kts | 92° |
| 2026-05-08 00:53 | 29.68544 | -93.87154 | 22902 ft | 475 kts | 92° |
| 2026-05-08 00:53 | 29.68503 | -93.83350 | 23229 ft | 477 kts | 92° |
| 2026-05-08 00:53 | 29.68459 | -93.79527 | 23547 ft | 479 kts | 92° |
| 2026-05-08 00:54 | 29.68418 | -93.75687 | 23818 ft | 481 kts | 92° |
| 2026-05-08 00:54 | 29.68379 | -93.71829 | 24072 ft | 483 kts | 92° |
| 2026-05-08 00:54 | 29.68341 | -93.67956 | 24339 ft | 486 kts | 92° |
| 2026-05-08 00:54 | 29.68298 | -93.64065 | 24596 ft | 488 kts | 92° |
| 2026-05-08 00:55 | 29.68253 | -93.60155 | 24847 ft | 490 kts | 93° |
| 2026-05-08 00:55 | 29.68207 | -93.56223 | 25105 ft | 492 kts | 93° |
| 2026-05-08 00:55 | 29.68163 | -93.52282 | 25363 ft | 494 kts | 92° |
| 2026-05-08 00:55 | 29.68120 | -93.48319 | 25617 ft | 497 kts | 93° |
| 2026-05-08 00:56 | 29.68076 | -93.44341 | 25874 ft | 499 kts | 93° |
| 2026-05-08 00:56 | 29.68027 | -93.40342 | 26117 ft | 501 kts | 93° |
| 2026-05-08 00:56 | 29.67975 | -93.36333 | 26363 ft | 503 kts | 93° |
| 2026-05-08 00:56 | 29.67921 | -93.32300 | 26607 ft | 505 kts | 93° |
| 2026-05-08 00:57 | 29.67866 | -93.28251 | 26839 ft | 508 kts | 93° |
| 2026-05-08 00:57 | 29.67812 | -93.24181 | 27071 ft | 510 kts | 93° |
| 2026-05-08 00:57 | 29.67756 | -93.20094 | 27298 ft | 512 kts | 93° |
| 2026-05-08 00:57 | 29.67700 | -93.16050 | 27521 ft | 514 kts | 93° |
| 2026-05-08 00:58 | 29.67642 | -93.11930 | 27746 ft | 516 kts | 93° |
| 2026-05-08 00:58 | 29.67578 | -93.07789 | 27960 ft | 519 kts | 93° |
| 2026-05-08 00:58 | 29.67508 | -93.03581 | 28170 ft | 521 kts | 93° |
| 2026-05-08 00:58 | 29.67462 | -93.00820 | 28305 ft | 522 kts | 93° |
| 2026-05-08 00:59 | 29.67369 | -92.95220 | 28566 ft | 525 kts | 93° |
| 2026-05-08 00:59 | 29.67303 | -92.91075 | 28772 ft | 527 kts | 93° |
| 2026-05-08 00:59 | 29.67259 | -92.88224 | 28902 ft | 528 kts | 93° |
| 2026-05-08 00:59 | 29.67169 | -92.82618 | 29170 ft | 531 kts | 94° |
| 2026-05-08 01:00 | 29.67096 | -92.78362 | 29366 ft | 533 kts | 94° |
| 2026-05-08 01:00 | 29.67021 | -92.74095 | 29552 ft | 535 kts | 94° |
| 2026-05-08 01:00 | 29.66970 | -92.71258 | 29680 ft | 536 kts | 94° |
| 2026-05-08 01:00 | 29.66892 | -92.66961 | 29876 ft | 538 kts | 94° |
| 2026-05-08 01:01 | 29.66815 | -92.62664 | 30155 ft | 538 kts | 94° |
| 2026-05-08 01:01 | 29.66735 | -92.58365 | 30385 ft | 538 kts | 94° |
| 2026-05-08 01:01 | 29.66656 | -92.54069 | 30628 ft | 537 kts | 94° |
| 2026-05-08 01:01 | 29.66575 | -92.49775 | 30884 ft | 537 kts | 94° |
| 2026-05-08 01:02 | 29.66492 | -92.45483 | 31138 ft | 537 kts | 94° |
| 2026-05-08 01:02 | 29.66404 | -92.41202 | 31388 ft | 536 kts | 94° |
| 2026-05-08 01:02 | 29.66133 | -92.36938 | 31634 ft | 532 kts | 102° |
| 2026-05-08 01:02 | 29.65388 | -92.32797 | 31877 ft | 528 kts | 108° |
| 2026-05-08 01:03 | 29.64533 | -92.28685 | 32135 ft | 528 kts | 108° |
| 2026-05-08 01:03 | 29.63679 | -92.24574 | 32384 ft | 528 kts | 108° |
| 2026-05-08 01:03 | 29.62831 | -92.20474 | 32644 ft | 527 kts | 108° |
| 2026-05-08 01:03 | 29.61985 | -92.16375 | 32910 ft | 527 kts | 108° |
| 2026-05-08 01:04 | 29.61140 | -92.12281 | 33155 ft | 526 kts | 108° |
| 2026-05-08 01:04 | 29.60293 | -92.08187 | 33407 ft | 526 kts | 108° |
| 2026-05-08 01:04 | 29.59446 | -92.04100 | 33663 ft | 525 kts | 108° |
| 2026-05-08 01:04 | 29.58596 | -92.00021 | 33919 ft | 525 kts | 108° |
| 2026-05-08 01:05 | 29.57745 | -91.95948 | 34130 ft | 525 kts | 108° |
| 2026-05-08 01:05 | 29.56891 | -91.91870 | 34327 ft | 524 kts | 108° |
| 2026-05-08 01:05 | 29.56035 | -91.87798 | 34517 ft | 524 kts | 108° |
| 2026-05-08 01:05 | 29.55177 | -91.83723 | 34707 ft | 525 kts | 108° |
| 2026-05-08 01:06 | 29.54320 | -91.79653 | 34893 ft | 525 kts | 108° |
| 2026-05-08 01:06 | 29.53463 | -91.75583 | 35064 ft | 525 kts | 108° |
| 2026-05-08 01:06 | 29.52603 | -91.71509 | 35240 ft | 525 kts | 108° |
| 2026-05-08 01:06 | 29.51753 | -91.67494 | 35400 ft | 525 kts | 108° |
| 2026-05-08 01:07 | 29.50891 | -91.63420 | 35580 ft | 525 kts | 108° |
| 2026-05-08 01:07 | 29.50026 | -91.59346 | 35752 ft | 525 kts | 108° |
| 2026-05-08 01:07 | 29.49163 | -91.55276 | 35922 ft | 525 kts | 108° |
| 2026-05-08 01:07 | 29.48300 | -91.51204 | 36092 ft | 525 kts | 108° |
| 2026-05-08 01:08 | 29.47434 | -91.47134 | 36253 ft | 525 kts | 108° |
| 2026-05-08 01:08 | 29.46565 | -91.43074 | 36409 ft | 525 kts | 108° |
| 2026-05-08 01:08 | 29.45693 | -91.39003 | 36562 ft | 525 kts | 108° |
| 2026-05-08 01:08 | 29.44823 | -91.34934 | 36714 ft | 525 kts | 108° |
| 2026-05-08 01:09 | 29.43956 | -91.30874 | 36845 ft | 525 kts | 108° |
| 2026-05-08 01:09 | 29.43085 | -91.26802 | 36990 ft | 524 kts | 108° |
| 2026-05-08 01:09 | 29.42215 | -91.22741 | 37023 ft | 524 kts | 108° |
| 2026-05-08 01:10 | 29.40475 | -91.14644 | 37018 ft | 523 kts | 108° |
| 2026-05-08 01:10 | 29.38735 | -91.06602 | 37018 ft | 523 kts | 108° |
| 2026-05-08 01:11 | 29.36980 | -90.98510 | 37016 ft | 523 kts | 108° |
| 2026-05-08 01:11 | 29.35223 | -90.90419 | 37017 ft | 523 kts | 108° |
| 2026-05-08 01:12 | 29.33461 | -90.82330 | 37021 ft | 523 kts | 108° |
| 2026-05-08 01:12 | 29.31684 | -90.74244 | 37019 ft | 523 kts | 108° |
| 2026-05-08 01:13 | 29.29904 | -90.66160 | 37018 ft | 523 kts | 108° |
| 2026-05-08 01:13 | 29.28124 | -90.58078 | 37021 ft | 523 kts | 108° |
| 2026-05-08 01:14 | 29.26340 | -90.49992 | 37024 ft | 523 kts | 108° |
| 2026-05-08 01:14 | 29.24558 | -90.41913 | 37030 ft | 523 kts | 108° |
| 2026-05-08 01:15 | 29.22761 | -90.33838 | 37026 ft | 524 kts | 108° |
| 2026-05-08 01:15 | 29.20960 | -90.25765 | 37032 ft | 524 kts | 108° |
| 2026-05-08 01:16 | 29.19156 | -90.17688 | 37034 ft | 524 kts | 108° |
| 2026-05-08 01:16 | 29.17351 | -90.09633 | 37029 ft | 524 kts | 108° |
| 2026-05-08 01:17 | 29.15642 | -90.01527 | 37031 ft | 525 kts | 106° |
| 2026-05-08 01:17 | 29.14031 | -89.93369 | 37031 ft | 525 kts | 106° |
| 2026-05-08 01:18 | 29.12405 | -89.85204 | 37031 ft | 525 kts | 106° |
| 2026-05-08 01:18 | 29.10747 | -89.77100 | 37032 ft | 524 kts | 107° |
| 2026-05-08 01:19 | 29.09073 | -89.69007 | 37030 ft | 524 kts | 107° |
| 2026-05-08 01:19 | 29.07390 | -89.60908 | 37030 ft | 523 kts | 106° |
| 2026-05-08 01:20 | 29.05719 | -89.52824 | 37031 ft | 523 kts | 106° |
| 2026-05-08 01:20 | 29.04028 | -89.44675 | 37034 ft | 523 kts | 106° |
| 2026-05-08 01:21 | 29.02348 | -89.36629 | 37035 ft | 523 kts | 107° |
| 2026-05-08 01:21 | 29.00651 | -89.28540 | 37034 ft | 523 kts | 107° |
| 2026-05-08 01:22 | 28.98969 | -89.20502 | 37036 ft | 523 kts | 106° |
| 2026-05-08 01:22 | 28.97276 | -89.12425 | 37035 ft | 522 kts | 107° |
| 2026-05-08 01:23 | 28.95573 | -89.04363 | 37033 ft | 522 kts | 107° |
| 2026-05-08 01:23 | 28.93862 | -88.96314 | 37033 ft | 522 kts | 107° |
| 2026-05-08 01:24 | 28.92157 | -88.88263 | 37028 ft | 521 kts | 106° |
| 2026-05-08 01:24 | 28.90451 | -88.80224 | 37032 ft | 521 kts | 107° |
| 2026-05-08 01:25 | 28.88731 | -88.72190 | 37034 ft | 521 kts | 107° |
| 2026-05-08 01:25 | 28.86838 | -88.64222 | 37035 ft | 519 kts | 110° |
| 2026-05-08 01:26 | 28.84611 | -88.56393 | 37041 ft | 518 kts | 112° |
| 2026-05-08 01:26 | 28.82319 | -88.48609 | 37039 ft | 518 kts | 111° |
| 2026-05-08 01:27 | 28.80123 | -88.40834 | 37043 ft | 518 kts | 111° |
| 2026-05-08 01:27 | 28.77969 | -88.33000 | 37041 ft | 518 kts | 110° |
| 2026-05-08 01:28 | 28.75803 | -88.25172 | 37041 ft | 517 kts | 111° |
| 2026-05-08 01:28 | 28.73612 | -88.17369 | 37040 ft | 517 kts | 111° |
| 2026-05-08 01:29 | 28.71409 | -88.09568 | 37039 ft | 517 kts | 111° |
| 2026-05-08 01:29 | 28.69214 | -88.01776 | 37039 ft | 517 kts | 111° |
| 2026-05-08 01:30 | 28.67015 | -87.93985 | 37033 ft | 517 kts | 111° |
| 2026-05-08 01:30 | 28.64815 | -87.86191 | 37036 ft | 516 kts | 111° |
| 2026-05-08 01:31 | 28.62611 | -87.78415 | 37038 ft | 516 kts | 111° |
| 2026-05-08 01:31 | 28.60405 | -87.70646 | 37040 ft | 516 kts | 111° |
| 2026-05-08 01:32 | 28.58191 | -87.62885 | 37045 ft | 516 kts | 111° |
| 2026-05-08 01:32 | 28.55975 | -87.55126 | 37043 ft | 515 kts | 111° |
| 2026-05-08 01:33 | 28.53755 | -87.47375 | 37044 ft | 515 kts | 111° |
| 2026-05-08 01:33 | 28.51533 | -87.39643 | 37047 ft | 514 kts | 111° |
| 2026-05-08 01:34 | 28.49305 | -87.31907 | 37049 ft | 514 kts | 111° |
| 2026-05-08 01:34 | 28.47097 | -87.24233 | 37047 ft | 514 kts | 111° |
| 2026-05-08 01:35 | 28.44865 | -87.16520 | 37047 ft | 514 kts | 111° |
| 2026-05-08 01:35 | 28.42629 | -87.08814 | 37048 ft | 514 kts | 111° |
| 2026-05-08 01:36 | 28.40387 | -87.01114 | 37049 ft | 513 kts | 111° |
| 2026-05-08 01:36 | 28.38151 | -86.93412 | 37051 ft | 513 kts | 111° |
| 2026-05-08 01:37 | 28.35905 | -86.85719 | 37050 ft | 513 kts | 111° |
| 2026-05-08 01:37 | 28.33659 | -86.78029 | 37052 ft | 513 kts | 111° |
| 2026-05-08 01:38 | 28.31401 | -86.70354 | 37053 ft | 512 kts | 111° |
| 2026-05-08 01:38 | 28.29147 | -86.62682 | 37054 ft | 512 kts | 111° |
| 2026-05-08 01:39 | 28.26917 | -86.55006 | 37056 ft | 512 kts | 111° |
| 2026-05-08 01:39 | 28.24678 | -86.47335 | 37058 ft | 512 kts | 111° |
| 2026-05-08 01:40 | 28.22431 | -86.39683 | 37055 ft | 511 kts | 111° |
| 2026-05-08 01:40 | 28.20199 | -86.32081 | 37055 ft | 511 kts | 111° |
| 2026-05-08 01:41 | 28.17946 | -86.24389 | 37058 ft | 511 kts | 111° |
| 2026-05-08 01:41 | 28.15699 | -86.16805 | 37057 ft | 511 kts | 111° |
| 2026-05-08 01:42 | 28.13429 | -86.09178 | 37058 ft | 511 kts | 111° |
| 2026-05-08 01:42 | 28.11170 | -86.01549 | 37061 ft | 510 kts | 111° |
| 2026-05-08 01:43 | 28.08909 | -85.93926 | 37057 ft | 510 kts | 111° |
| 2026-05-08 01:43 | 28.06637 | -85.86315 | 37061 ft | 510 kts | 111° |
| 2026-05-08 01:44 | 28.04362 | -85.78712 | 37059 ft | 510 kts | 111° |
| 2026-05-08 01:44 | 28.02091 | -85.71109 | 37056 ft | 510 kts | 111° |
| 2026-05-08 01:45 | 27.99810 | -85.63509 | 37057 ft | 509 kts | 111° |
| 2026-05-08 01:45 | 27.97523 | -85.55917 | 37057 ft | 509 kts | 111° |
| 2026-05-08 01:46 | 27.95616 | -85.49615 | 37058 ft | 509 kts | 111° |
| 2026-05-08 01:46 | 27.93326 | -85.42041 | 37058 ft | 509 kts | 111° |
| 2026-05-08 01:47 | 27.91036 | -85.34467 | 37057 ft | 509 kts | 111° |
| 2026-05-08 01:47 | 27.88757 | -85.26899 | 37059 ft | 509 kts | 108° |
| 2026-05-08 01:48 | 27.86628 | -85.15124 | 37057 ft | 510 kts | 102° |
| 2026-05-08 01:48 | 27.85307 | -85.07288 | 37057 ft | 510 kts | 102° |
| 2026-05-08 01:49 | 27.83975 | -84.99384 | 37060 ft | 510 kts | 102° |
| 2026-05-08 01:49 | 27.82651 | -84.91549 | 37059 ft | 510 kts | 102° |
| 2026-05-08 01:50 | 27.81452 | -84.83646 | 37059 ft | 510 kts | 94° |
| 2026-05-08 01:50 | 27.81609 | -84.75615 | 37058 ft | 510 kts | 86° |
| 2026-05-08 01:51 | 27.82003 | -84.67615 | 37059 ft | 510 kts | 86° |
| 2026-05-08 01:51 | 27.82369 | -84.59617 | 37061 ft | 510 kts | 86° |
| 2026-05-08 01:52 | 27.82740 | -84.51622 | 37064 ft | 510 kts | 86° |
| 2026-05-08 01:52 | 27.83120 | -84.43679 | 37069 ft | 510 kts | 86° |
| 2026-05-08 01:53 | 27.83493 | -84.35632 | 37064 ft | 510 kts | 86° |
| 2026-05-08 01:53 | 27.83854 | -84.27634 | 37067 ft | 510 kts | 86° |
| 2026-05-08 01:54 | 27.84214 | -84.19686 | 37069 ft | 510 kts | 86° |
| 2026-05-08 01:54 | 27.84566 | -84.11689 | 37070 ft | 510 kts | 86° |
| 2026-05-08 01:55 | 27.84910 | -84.03688 | 37069 ft | 510 kts | 86° |
| 2026-05-08 01:55 | 27.85254 | -83.95644 | 36629 ft | 520 kts | 86° |
| 2026-05-08 01:56 | 27.85432 | -83.91521 | 35683 ft | 528 kts | 87° |
| 2026-05-08 01:56 | 27.85605 | -83.87388 | 35020 ft | 527 kts | 87° |
| 2026-05-08 01:56 | 27.85778 | -83.83234 | 34201 ft | 532 kts | 87° |
| 2026-05-08 01:56 | 27.85952 | -83.79077 | 33777 ft | 526 kts | 87° |
| 2026-05-08 01:57 | 27.86122 | -83.74938 | 32948 ft | 528 kts | 87° |
| 2026-05-08 01:57 | 27.86292 | -83.70783 | 32198 ft | 530 kts | 87° |
| 2026-05-08 01:57 | 27.86463 | -83.66634 | 31648 ft | 527 kts | 87° |
| 2026-05-08 01:57 | 27.86632 | -83.62508 | 31066 ft | 525 kts | 87° |
| 2026-05-08 01:58 | 27.86797 | -83.58386 | 30495 ft | 523 kts | 87° |
| 2026-05-08 01:58 | 27.86960 | -83.54285 | 30010 ft | 519 kts | 87° |
| 2026-05-08 01:58 | 27.87120 | -83.50215 | 29334 ft | 517 kts | 87° |
| 2026-05-08 01:58 | 27.87274 | -83.46195 | 28907 ft | 509 kts | 87° |
| 2026-05-08 01:59 | 27.87425 | -83.42189 | 28325 ft | 506 kts | 87° |
| 2026-05-08 01:59 | 27.87577 | -83.38241 | 27880 ft | 500 kts | 87° |
| 2026-05-08 01:59 | 27.87728 | -83.34333 | 27340 ft | 496 kts | 87° |
| 2026-05-08 01:59 | 27.87878 | -83.30449 | 26825 ft | 492 kts | 87° |
| 2026-05-08 02:00 | 27.88024 | -83.26599 | 26317 ft | 488 kts | 87° |
| 2026-05-08 02:00 | 27.88124 | -83.22780 | 25846 ft | 484 kts | 89° |
| 2026-05-08 02:00 | 27.88154 | -83.19003 | 25515 ft | 476 kts | 90° |
| 2026-05-08 02:00 | 27.88137 | -83.15305 | 25276 ft | 466 kts | 90° |
| 2026-05-08 02:01 | 27.88104 | -83.11682 | 25020 ft | 457 kts | 90° |
| 2026-05-08 02:01 | 27.88076 | -83.08114 | 24770 ft | 451 kts | 90° |
| 2026-05-08 02:01 | 27.88060 | -83.04582 | 24526 ft | 448 kts | 90° |
| 2026-05-08 02:01 | 27.88056 | -83.01066 | 24277 ft | 446 kts | 90° |
| 2026-05-08 02:02 | 27.88058 | -82.97613 | 24036 ft | 444 kts | 90° |
| 2026-05-08 02:02 | 27.88064 | -82.94129 | 23791 ft | 442 kts | 89° |
| 2026-05-08 02:02 | 27.88071 | -82.90660 | 23535 ft | 440 kts | 89° |
| 2026-05-08 02:02 | 27.88076 | -82.87203 | 23283 ft | 438 kts | 90° |
| 2026-05-08 02:03 | 27.88076 | -82.83759 | 23042 ft | 437 kts | 90° |
| 2026-05-08 02:03 | 27.88074 | -82.80335 | 22804 ft | 435 kts | 90° |
| 2026-05-08 02:03 | 27.88070 | -82.76921 | 22563 ft | 433 kts | 90° |
| 2026-05-08 02:03 | 27.88065 | -82.73523 | 22322 ft | 432 kts | 90° |
| 2026-05-08 02:04 | 27.88059 | -82.70133 | 22094 ft | 430 kts | 90° |
| 2026-05-08 02:04 | 27.88053 | -82.66759 | 21852 ft | 428 kts | 90° |
| 2026-05-08 02:04 | 27.88032 | -82.63404 | 21616 ft | 426 kts | 90° |
| 2026-05-08 02:04 | 27.87991 | -82.60067 | 21377 ft | 424 kts | 90° |
| 2026-05-08 02:05 | 27.87937 | -82.56728 | 21141 ft | 423 kts | 91° |
| 2026-05-08 02:05 | 27.87875 | -82.53414 | 20908 ft | 421 kts | 91° |
| 2026-05-08 02:05 | 27.87812 | -82.50108 | 20678 ft | 420 kts | 90° |
| 2026-05-08 02:05 | 27.87752 | -82.46814 | 20450 ft | 418 kts | 90° |
| 2026-05-08 02:06 | 27.87759 | -82.43540 | 20208 ft | 415 kts | 84° |
| 2026-05-08 02:06 | 27.88214 | -82.40337 | 19970 ft | 412 kts | 73° |
| 2026-05-08 02:06 | 27.89158 | -82.37299 | 19475 ft | 409 kts | 62° |
| 2026-05-08 02:06 | 27.90353 | -82.34395 | 19033 ft | 407 kts | 62° |
| 2026-05-08 02:07 | 27.91530 | -82.31505 | 18656 ft | 403 kts | 62° |
| 2026-05-08 02:07 | 27.92690 | -82.28625 | 18259 ft | 400 kts | 62° |
| 2026-05-08 02:07 | 27.93833 | -82.25768 | 17839 ft | 397 kts | 63° |
| 2026-05-08 02:07 | 27.94950 | -82.22969 | 17415 ft | 394 kts | 63° |
| 2026-05-08 02:08 | 27.96075 | -82.20149 | 16989 ft | 391 kts | 63° |
| 2026-05-08 02:08 | 27.97187 | -82.17355 | 16577 ft | 388 kts | 63° |
| 2026-05-08 02:08 | 27.98294 | -82.14581 | 16185 ft | 385 kts | 63° |
| 2026-05-08 02:08 | 27.99393 | -82.11830 | 15788 ft | 382 kts | 64° |
| 2026-05-08 02:09 | 28.00480 | -82.09104 | 15402 ft | 379 kts | 64° |
| 2026-05-08 02:09 | 28.01562 | -82.06396 | 15006 ft | 376 kts | 64° |
| 2026-05-08 02:09 | 28.02636 | -82.03709 | 14626 ft | 373 kts | 64° |
| 2026-05-08 02:09 | 28.03701 | -82.01042 | 14330 ft | 368 kts | 64° |
| 2026-05-08 02:10 | 28.04738 | -81.98443 | 14222 ft | 357 kts | 64° |
| 2026-05-08 02:10 | 28.05744 | -81.95918 | 14082 ft | 347 kts | 64° |
| 2026-05-08 02:10 | 28.06737 | -81.93449 | 13806 ft | 343 kts | 64° |
| 2026-05-08 02:10 | 28.07731 | -81.91007 | 13448 ft | 340 kts | 64° |
| 2026-05-08 02:11 | 28.08714 | -81.88602 | 12856 ft | 334 kts | 64° |
| 2026-05-08 02:11 | 28.09722 | -81.86246 | 12148 ft | 330 kts | 62° |
| 2026-05-08 02:11 | 28.10780 | -81.83944 | 11808 ft | 328 kts | 60° |
| 2026-05-08 02:11 | 28.11811 | -81.81661 | 11497 ft | 324 kts | 66° |
| 2026-05-08 02:12 | 28.12431 | -81.79215 | 11176 ft | 323 kts | 82° |
| 2026-05-08 02:12 | 28.12485 | -81.76693 | 10845 ft | 320 kts | 97° |
| 2026-05-08 02:12 | 28.12184 | -81.74235 | 10526 ft | 319 kts | 98° |
| 2026-05-08 02:12 | 28.11872 | -81.71752 | 10202 ft | 317 kts | 98° |
| 2026-05-08 02:13 | 28.11573 | -81.69320 | 10062 ft | 307 kts | 98° |
| 2026-05-08 02:13 | 28.11284 | -81.66967 | 9943 ft | 296 kts | 98° |
| 2026-05-08 02:13 | 28.11007 | -81.64695 | 9820 ft | 286 kts | 98° |
| 2026-05-08 02:13 | 28.10739 | -81.62493 | 9593 ft | 279 kts | 98° |
| 2026-05-08 02:14 | 28.10473 | -81.60333 | 9289 ft | 276 kts | 98° |
| 2026-05-08 02:14 | 28.10204 | -81.58190 | 8979 ft | 273 kts | 98° |
| 2026-05-08 02:14 | 28.09937 | -81.56066 | 8659 ft | 271 kts | 98° |
| 2026-05-08 02:14 | 28.09675 | -81.53958 | 8346 ft | 269 kts | 98° |
| 2026-05-08 02:15 | 28.09416 | -81.51867 | 8044 ft | 267 kts | 98° |
| 2026-05-08 02:15 | 28.09158 | -81.49778 | 7595 ft | 271 kts | 98° |
| 2026-05-08 02:15 | 28.08898 | -81.47678 | 7340 ft | 266 kts | 98° |
| 2026-05-08 02:15 | 28.08647 | -81.45628 | 7199 ft | 261 kts | 96° |
| 2026-05-08 02:16 | 28.08745 | -81.43594 | 7075 ft | 259 kts | 73° |
| 2026-05-08 02:16 | 28.09508 | -81.41760 | 6858 ft | 260 kts | 51° |
| 2026-05-08 02:16 | 28.10828 | -81.40388 | 6484 ft | 258 kts | 32° |
| 2026-05-08 02:16 | 28.12314 | -81.39242 | 6139 ft | 257 kts | 33° |
| 2026-05-08 02:17 | 28.13776 | -81.38102 | 5749 ft | 254 kts | 33° |
| 2026-05-08 02:17 | 28.15221 | -81.36969 | 5398 ft | 251 kts | 34° |
| 2026-05-08 02:17 | 28.16641 | -81.35851 | 5066 ft | 247 kts | 34° |
| 2026-05-08 02:17 | 28.18037 | -81.34749 | 4731 ft | 243 kts | 35° |
| 2026-05-08 02:18 | 28.19417 | -81.33657 | 4384 ft | 240 kts | 35° |
| 2026-05-08 02:18 | 28.20867 | -81.32741 | 3996 ft | 238 kts | 18° |
| 2026-05-08 02:18 | 28.22475 | -81.32454 | 3693 ft | 232 kts | 358° |
| 2026-05-08 02:18 | 28.24057 | -81.32472 | 3418 ft | 219 kts | 357° |
| 2026-05-08 02:19 | 28.25517 | -81.32488 | 3127 ft | 201 kts | 358° |
| 2026-05-08 02:19 | 28.26846 | -81.32502 | 2898 ft | 179 kts | 356° |
| 2026-05-08 02:19 | 28.28017 | -81.32514 | 2668 ft | 164 kts | 356° |
| 2026-05-08 02:19 | 28.29137 | -81.32527 | 2464 ft | 158 kts | 355° |
| 2026-05-08 02:20 | 28.30220 | -81.32539 | 2262 ft | 155 kts | 355° |
| 2026-05-08 02:20 | 28.31292 | -81.32551 | 2062 ft | 154 kts | 355° |
| 2026-05-08 02:20 | 28.32362 | -81.32563 | 1870 ft | 154 kts | 354° |
| 2026-05-08 02:20 | 28.33433 | -81.32575 | 1661 ft | 153 kts | 355° |
| 2026-05-08 02:21 | 28.34503 | -81.32586 | 1436 ft | 154 kts | 355° |
| 2026-05-08 02:21 | 28.35568 | -81.32597 | 1258 ft | 152 kts | 356° |
| 2026-05-08 02:21 | 28.36619 | -81.32608 | 1059 ft | 149 kts | 355° |
| 2026-05-08 02:21 | 28.37627 | -81.32614 | 877 ft | 149 kts | 357° |
| 2026-05-08 02:22 | 28.38663 | -81.32620 | 686 ft | 150 kts | 356° |
| 2026-05-08 02:22 | 28.39717 | -81.32635 | 527 ft | 153 kts | 355° |
| 2026-05-08 02:22 | 28.40785 | -81.32647 | 318 ft | 153 kts | 355° |
| 2026-05-08 02:22 | 28.41828 | -81.32663 | 114 ft | 148 kts | 356° |
| 2026-05-08 02:23 | 28.42749 | -81.32676 | 102 ft | 107 kts | 359° |
| 2026-05-08 02:23 | 28.43315 | -81.32683 | 101 ft | 57 kts | 359° |
| 2026-05-08 02:23 | 28.43601 | -81.32672 | 99 ft | 34 kts | 9° |
| 2026-05-08 02:23 | 28.43738 | -81.32559 | 100 ft | 24 kts | 58° |
| 2026-05-08 02:24 | 28.43811 | -81.32422 | 98 ft | 18 kts | 59° |
| 2026-05-08 02:24 | 28.43871 | -81.32307 | 100 ft | 16 kts | 59° |
| 2026-05-08 02:24 | 28.43923 | -81.32210 | 101 ft | 14 kts | 59° |
| 2026-05-08 02:24 | 28.43976 | -81.32107 | 101 ft | 17 kts | 65° |
| 2026-05-08 02:25 | 28.43978 | -81.31987 | 99 ft | 15 kts | 111° |
| 2026-05-08 02:25 | 28.43932 | -81.31881 | 99 ft | 15 kts | 114° |
| 2026-05-08 02:25 | 28.43923 | -81.31762 | 102 ft | 15 kts | 89° |
| 2026-05-08 02:25 | 28.43898 | -81.31697 | 105 ft | 10 kts | 149° |
| 2026-05-08 02:26 | 28.43824 | -81.31683 | 105 ft | 11 kts | 161° |
| 2026-05-08 02:26 | 28.43748 | -81.31629 | 103 ft | 11 kts | 146° |
| 2026-05-08 02:26 | 28.43708 | -81.31589 | 100 ft | 9 kts | 122° |
| 2026-05-08 02:26 | 28.43706 | -81.31526 | 99 ft | 6 kts | 95° |
| 2026-05-08 02:27 | 28.43667 | -81.31508 | 96 ft | 8 kts | 191° |
| 2026-05-08 02:27 | 28.43639 | -81.31516 | 94 ft | 2 kts | 194° |
| 2026-05-08 02:27 | 28.43634 | -81.31517 | 94 ft | 0 kts | 193° |